Time;durP1;ratioP1;P1;durP2;ratioP2;P2;SDS_P1;SDS_P2;PMS_P1;PMS_P2;Temp;Humidity;BMP_temperature;BMP_pressure;BME280_temperature;BME280_humidity;BME280_pressure;Samples;Min_cycle;Max_cycle;Signal;HPM_P1;HPM_P2
2023/02/19 00:01:39;;;;;;;8.73;5.87;;;8.60;11.10;;;;;;6266645;22;20480;-82
2023/02/19 00:04:17;;;;;;;8.57;5.50;;;8.50;1.00;;;;;;6266918;22;20195;-82
2023/02/19 00:06:44;;;;;;;8.13;5.90;;;8.50;99.90;;;;;;6268409;22;20176;-81
2023/02/19 00:09:12;;;;;;;8.53;5.90;;;8.40;99.90;;;;;;6267164;22;20165;-80
2023/02/19 00:11:38;;;;;;;12.70;6.37;;;;;;;;;;6268432;22;20258;-78
2023/02/19 00:14:04;;;;;;;9.60;6.27;;;;;;;;;;6265695;22;20191;-78
2023/02/19 00:16:33;;;;;;;11.80;6.07;;;8.20;1.00;;;;;;6266773;22;20180;-79
2023/02/19 00:19:00;;;;;;;9.73;6.43;;;8.20;1.00;;;;;;6268056;22;20175;-81
2023/02/19 00:21:27;;;;;;;11.77;6.70;;;;;;;;;;6267485;22;20259;-80
2023/02/19 00:23:55;;;;;;;14.87;7.10;;;8.10;89.10;;;;;;6262888;22;20706;-78
2023/02/19 00:26:22;;;;;;;10.53;7.60;;;;;;;;;;6263060;22;20252;-80
2023/02/19 00:28:49;;;;;;;11.03;7.00;;;8.00;99.90;;;;;;6264934;22;20161;-78
2023/02/19 00:31:15;;;;;;;11.53;7.07;;;;;;;;;;6265476;22;20152;-78
2023/02/19 00:33:41;;;;;;;11.67;6.13;;;;;;;;;;6263385;22;20160;-77
2023/02/19 00:36:07;;;;;;;12.30;7.23;;;;;;;;;;6264248;22;20659;-78
2023/02/19 00:38:37;;;;;;;14.27;7.93;;;7.90;99.90;;;;;;6262979;22;20251;-77
2023/02/19 00:41:18;;;;;;;11.93;7.87;;;7.90;99.90;;;;;;6264634;22;20206;-77
2023/02/19 00:43:44;;;;;;;12.83;8.70;;;;;;;;;;6264433;22;20168;-81
2023/02/19 00:46:10;;;;;;;12.50;7.53;;;;;;;;;;6263063;22;20310;-80
2023/02/19 00:48:36;;;;;;;13.77;7.60;;;;;;;;;;6264605;22;20177;-78
2023/02/19 00:51:02;;;;;;;11.07;7.70;;;;;;;;;;6263554;22;20148;-77
2023/02/19 00:53:28;;;;;;;13.47;7.33;;;;;;;;;;6265577;22;20357;-80
2023/02/19 00:55:54;;;;;;;13.03;7.30;;;;;;;;;;6265306;22;20156;-81
2023/02/19 00:58:20;;;;;;;11.60;6.67;;;;;;;;;;6266552;22;20181;-80
2023/02/19 01:00:46;;;;;;;12.30;6.63;;;;;;;;;;6266187;22;20182;-82
2023/02/19 01:03:12;;;;;;;10.23;7.47;;;;;;;;;;6266527;22;20156;-77
2023/02/19 01:05:38;;;;;;;11.07;6.87;;;;;;;;;;6267301;22;20186;-81
2023/02/19 01:08:04;;;;;;;10.20;6.90;;;;;;;;;;6264329;22;20176;-76
2023/02/19 01:10:30;;;;;;;9.07;6.27;;;;;;;;;;6263150;22;20157;-78
2023/02/19 01:12:56;;;;;;;11.43;6.50;;;;;;;;;;6262712;22;20160;-78
2023/02/19 01:15:22;;;;;;;10.17;6.53;;;;;;;;;;6264505;22;20155;-78
2023/02/19 01:17:48;;;;;;;8.93;6.23;;;;;;;;;;6264551;22;20177;-80
2023/02/19 01:20:14;;;;;;;12.27;6.43;;;;;;;;;;6266549;22;20628;-76
2023/02/19 01:22:40;;;;;;;8.13;6.20;;;;;;;;;;6266532;22;20173;-80
2023/02/19 01:25:06;;;;;;;10.77;6.30;;;;;;;;;;6267572;22;20251;-78
2023/02/19 01:27:32;;;;;;;7.83;6.10;;;;;;;;;;6265667;22;20181;-81
2023/02/19 01:29:58;;;;;;;7.67;5.70;;;;;;;;;;6264136;22;20145;-80
2023/02/19 01:32:24;;;;;;;9.40;5.63;;;;;;;;;;6264410;22;20153;-77
2023/02/19 01:34:50;;;;;;;7.43;5.53;;;;;;;;;;6264469;22;20181;-79
2023/02/19 01:37:16;;;;;;;7.60;5.80;;;;;;;;;;6264502;22;20177;-77
2023/02/19 01:39:42;;;;;;;7.27;5.53;;;;;;;;;;6264554;22;20627;-79
2023/02/19 01:42:14;;;;;;;8.43;5.33;;;7.80;1.00;;;;;;6262478;22;20524;-76
2023/02/19 01:44:39;;;;;;;8.70;5.90;;;;;;;;;;6266406;22;20181;-77
2023/02/19 01:47:05;;;;;;;7.77;6.03;;;;;;;;;;6264425;22;20653;-78
2023/02/19 01:49:38;;;;;;;7.97;6.47;;;7.80;99.90;;;;;;6266548;22;20149;-78
2023/02/19 01:52:14;;;;;;;9.27;6.17;;;8.00;1.00;;;;;;6264416;22;20461;-79
2023/02/19 01:54:41;;;;;;;8.23;6.00;;;7.80;99.90;;;;;;6266471;22;20145;-79
2023/02/19 01:57:15;;;;;;;9.33;6.50;;;7.80;1.00;;;;;;6264070;22;20204;-79
2023/02/19 01:59:42;;;;;;;10.30;7.37;;;7.70;1.00;;;;;;6264155;22;20159;-78
2023/02/19 02:02:08;;;;;;;11.70;7.63;;;;;;;;;;6262993;22;20713;-77
2023/02/19 02:04:34;;;;;;;9.87;6.87;;;9.90;1.00;;;;;;6263804;22;20538;-81
2023/02/19 02:10:18;;;;;;;8.83;6.87;;;7.80;20.90;;;;;;6266823;22;20238;-77
2023/02/19 02:12:33;;;;;;;9.77;6.90;;;8.20;99.90;;;;;;6265770;22;20168;-80
2023/02/19 02:14:59;;;;;;;10.87;7.60;;;;;;;;;;6267283;22;20157;-78
2023/02/19 02:17:30;;;;;;;14.57;8.10;;;7.60;99.90;;;;;;6265240;22;20187;-79
2023/02/19 02:20:13;;;;;;;10.77;7.60;;;7.80;1.00;;;;;;6266454;22;20172;-80
2023/02/19 02:22:53;;;;;;;12.53;8.67;;;7.80;1.00;;;;;;6264925;22;20149;-77
2023/02/19 02:25:22;;;;;;;11.17;8.30;;;8.40;1.00;;;;;;6264500;22;20188;-79
2023/02/19 02:28:22;;;;;;;14.87;9.07;;;7.80;1.00;;;;;;6266265;22;20638;-80
2023/02/19 02:30:56;;;;;;;15.60;9.23;;;8.00;1.00;;;;;;6264623;22;20181;-80
2023/02/19 02:33:53;;;;;;;17.13;10.27;;;7.90;1.00;;;;;;6266397;22;20614;-76
2023/02/19 02:36:19;;;;;;;16.57;9.97;;;;;;;;;;6266352;22;20173;-80
2023/02/19 02:38:47;;;;;;;14.87;8.70;;;7.90;69.90;;;;;;6265001;22;20157;-79
2023/02/19 02:41:14;;;;;;;11.00;7.90;;;7.80;40.60;;;;;;6266158;22;20153;-81
2023/02/19 02:43:40;;;;;;;10.70;6.57;;;;;;;;;;6266067;22;20180;-76
2023/02/19 02:46:09;;;;;;;10.60;6.20;;;7.80;1.00;;;;;;6263519;22;20581;-81
2023/02/19 02:48:43;;;;;;;8.30;5.80;;;8.00;1.00;;;;;;6263919;22;20156;-81
2023/02/19 02:51:22;;;;;;;5.57;4.30;;;7.70;1.00;;;;;;6264832;22;20145;-77
2023/02/19 02:57:18;;;;;;;5.60;3.97;;;7.70;1.00;;;;;;6254069;22;20207;-77
2023/02/19 02:59:44;;;;;;;5.13;4.00;;;;;;;;;;6265463;22;20707;-77
2023/02/19 03:02:21;;;;;;;4.73;3.80;;;7.70;1.00;;;;;;6263690;22;20168;-79
2023/02/19 03:08:01;;;;;;;4.93;4.03;;;7.60;64.90;;;;;;6265855;22;20246;-79
2023/02/19 03:10:51;;;;;;;4.20;3.53;;;7.60;1.00;;;;;;6264631;22;20164;-79
2023/02/19 03:19:19;;;;;;;5.47;2.57;;;7.60;1.00;;;;;;6265501;22;20167;-77
2023/02/19 03:21:56;;;;;;;4.20;2.97;;;7.50;1.00;;;;;;6263224;22;20490;-80
2023/02/19 03:27:13;;;;;;;3.67;2.80;;;7.40;99.90;;;;;;6265023;22;20194;-77
2023/02/19 03:29:40;;;;;;;4.33;2.40;;;7.40;99.90;;;;;;6262821;22;20473;-79
2023/02/19 03:32:16;;;;;;;2.90;2.60;;;7.40;99.90;;;;;;6264019;22;20592;-76
2023/02/19 03:34:51;;;;;;;4.37;3.00;;;7.40;1.00;;;;;;6265888;22;20156;-79
2023/02/19 03:37:56;;;;;;;4.10;2.70;;;7.40;1.00;;;;;;6265129;22;20168;-78
2023/02/19 03:40:27;;;;;;;4.87;3.20;;;7.40;1.00;;;;;;6265029;22;20191;-78
2023/02/19 03:43:18;;;;;;;4.10;3.07;;;7.40;1.00;;;;;;6263951;22;20227;-79
2023/02/19 03:46:00;;;;;;;5.67;3.10;;;7.50;1.00;;;;;;6263275;22;20173;-79
2023/02/19 03:48:44;;;;;;;7.40;4.37;;;7.40;1.00;;;;;;6263567;22;20168;-79
2023/02/19 03:51:27;;;;;;;5.10;3.50;;;7.40;1.00;;;;;;6265302;22;20149;-79
2023/02/19 03:54:11;;;;;;;6.83;3.97;;;7.40;1.00;;;;;;6265527;22;20214;-80
2023/02/19 03:56:48;;;;;;;3.70;3.30;;;7.50;1.00;;;;;;6265390;22;20204;-79
2023/02/19 03:59:17;;;;;;;5.70;3.30;;;7.50;1.00;;;;;;6265109;22;20155;-79
2023/02/19 04:01:57;;;;;;;4.60;3.87;;;7.50;1.00;;;;;;6265826;22;20677;-79
2023/02/19 04:04:34;;;;;;;4.47;3.83;;;7.40;1.00;;;;;;6265483;22;20192;-79
2023/02/19 04:07:00;;;;;;;5.67;4.00;;;;;;;;;;6264654;22;20180;-78
2023/02/19 04:09:30;;;;;;;4.03;2.23;;;7.60;1.00;;;;;;6265588;22;20153;-79
2023/02/19 04:11:56;;;;;;;1.20;1.10;;;;;;;;;;6264243;22;20145;-79
2023/02/19 04:14:31;;;;;;;1.10;1.00;;;6.40;1.00;;;;;;6262832;22;20185;-78
2023/02/19 04:17:05;;;;;;;0.80;0.80;;;6.10;89.00;;;;;;6263434;22;20226;-79
2023/02/19 04:19:36;;;;;;;1.33;1.03;;;7.10;1.00;;;;;;6264800;22;20160;-79
2023/02/19 04:22:04;;;;;;;1.00;0.80;;;5.90;1.00;;;;;;6261606;22;20252;-79
2023/02/19 04:24:36;;;;;;;1.40;1.30;;;5.80;99.90;;;;;;6261546;22;20390;-78
2023/02/19 04:27:03;;;;;;;2.07;1.87;;;5.60;1.00;;;;;;6265147;22;20226;-78
2023/02/19 04:29:29;;;;;;;1.40;1.30;;;;;;;;;;6263159;22;20883;-80
2023/02/19 04:31:55;;;;;;;1.43;1.33;;;;;;;;;;6263322;22;20158;-80
2023/02/19 04:34:21;;;;;;;1.73;1.63;;;;;;;;;;6261906;22;20604;-80
2023/02/19 04:36:47;;;;;;;1.63;1.53;;;;;;;;;;6264551;22;20515;-79
2023/02/19 04:39:13;;;;;;;1.80;1.70;;;;;;;;;;6263046;22;20165;-79
2023/02/19 04:41:39;;;;;;;1.70;1.60;;;;;;;;;;6264894;22;20500;-78
2023/02/19 04:44:05;;;;;;;1.80;1.70;;;5.20;1.00;;;;;;6264746;22;20200;-79
2023/02/19 04:46:31;;;;;;;1.63;1.52;;;;;;;;;;6261892;22;21004;-80
2023/02/19 04:48:56;;;;;;;1.20;1.10;;;;;;;;;;6267419;22;20141;-79
2023/02/19 04:51:23;;;;;;;1.43;1.33;;;;;;;;;;6265347;22;20163;-77
2023/02/19 04:53:49;;;;;;;2.30;1.37;;;;;;;;;;6262834;22;20163;-80
2023/02/19 04:56:15;;;;;;;2.10;1.40;;;5.30;99.90;;;;;;6263555;22;20167;-79
2023/02/19 04:58:42;;;;;;;1.17;1.07;;;;;;;;;;6262450;22;20161;-79
2023/02/19 05:01:08;;;;;;;1.77;1.40;;;5.30;1.00;;;;;;6265345;22;20215;-79
2023/02/19 05:03:34;;;;;;;1.77;1.20;;;;;;;;;;6265228;22;20612;-80
2023/02/19 05:06:05;;;;;;;1.67;1.33;;;5.50;1.00;;;;;;6265268;22;20149;-77
2023/02/19 05:08:31;;;;;;;1.90;1.50;;;;;;;;;;6266732;22;20164;-81
2023/02/19 05:11:01;;;;;;;2.57;2.17;;;5.50;99.90;;;;;;6267871;22;20157;-80
2023/02/19 05:13:27;;;;;;;2.23;2.03;;;;;;;;;;6266592;22;20156;-80
2023/02/19 05:16:02;;;;;;;3.10;2.10;;;5.30;99.90;;;;;;6265755;22;20573;-78
2023/02/19 05:18:29;;;;;;;2.10;1.90;;;5.10;99.90;;;;;;6266629;22;20148;-78
2023/02/19 05:20:57;;;;;;;2.20;1.93;;;4.90;99.90;;;;;;6268207;22;20468;-80
2023/02/19 05:23:23;;;;;;;1.63;1.50;;;;;;;;;;6266388;22;20160;-79
2023/02/19 05:25:49;;;;;;;2.20;1.80;;;;;;;;;;6265924;22;20216;-78
2023/02/19 05:28:18;;;;;;;2.60;1.77;;;;;;;;;;6265635;22;20195;-78
2023/02/19 05:30:48;;;;;;;2.17;1.97;;;4.90;99.90;;;;;;6268186;22;20203;-78
2023/02/19 05:33:16;;;;;;;3.30;2.27;;;4.80;1.00;;;;;;6268028;22;20141;-78
2023/02/19 05:35:50;;;;;;;2.80;2.30;;;4.80;1.00;;;;;;6266084;22;20168;-78
2023/02/19 05:38:17;;;;;;;3.57;2.20;;;4.80;1.00;;;;;;6268264;22;20199;-79
2023/02/19 05:40:43;;;;;;;2.60;2.40;;;4.70;1.00;;;;;;6265883;22;20161;-78
2023/02/19 05:43:10;;;;;;;4.17;3.00;;;4.70;1.00;;;;;;6266386;22;20244;-76
2023/02/19 05:45:36;;;;;;;3.57;2.73;;;;;;;;;;6267616;22;20180;-80
2023/02/19 05:48:03;;;;;;;4.57;3.07;;;4.60;1.00;;;;;;6267786;22;20644;-77
2023/02/19 05:50:29;;;;;;;3.13;2.60;;;;;;;;;;6267834;22;20500;-78
2023/02/19 05:52:55;;;;;;;3.83;2.50;;;;;;;;;;6267358;22;20149;-78
2023/02/19 05:55:21;;;;;;;3.80;2.83;;;;;;;;;;6269024;22;20153;-78
2023/02/19 05:57:47;;;;;;;3.77;3.20;;;4.20;99.90;;;;;;6267211;22;20191;-78
2023/02/19 06:00:15;;;;;;;3.80;3.40;;;4.10;1.00;;;;;;6268223;22;20202;-80
2023/02/19 06:02:41;;;;;;;3.37;2.47;;;;;;;;;;6267325;22;20185;-78
2023/02/19 06:05:07;;;;;;;3.53;1.73;;;;;;;;;;6266476;22;20207;-77
2023/02/19 06:07:34;;;;;;;1.43;1.10;;;;;;;;;;6267334;22;20648;-79
2023/02/19 06:10:00;;;;;;;2.83;1.00;;;;;;;;;;6268188;22;20191;-78
2023/02/19 06:12:26;;;;;;;1.97;1.00;;;;;;;;;;6266368;22;20153;-78
2023/02/19 06:14:51;;;;;;;2.67;1.10;;;;;;;;;;6268459;22;20183;-78
2023/02/19 06:17:17;;;;;;;1.03;0.93;;;;;;;;;;6266314;22;20176;-78
2023/02/19 06:19:43;;;;;;;0.80;0.80;;;;;;;;;;6266448;22;20189;-78
2023/02/19 06:22:10;;;;;;;0.90;0.90;;;;;;;;;;6266196;22;20161;-79
2023/02/19 06:24:36;;;;;;;1.30;1.20;;;;;;;;;;6265781;22;20259;-79
2023/02/19 06:27:05;;;;;;;2.00;1.10;;;;;;;;;;6265623;22;20185;-79
2023/02/19 06:29:32;;;;;;;2.07;1.53;;;;;;;;;;6267431;22;20169;-79
2023/02/19 06:31:58;;;;;;;1.30;1.20;;;;;;;;;;6265738;22;20266;-80
2023/02/19 06:34:24;;;;;;;1.20;1.10;;;;;;;;;;6266201;22;20168;-79
2023/02/19 06:36:50;;;;;;;1.57;1.43;;;;;;;;;;6266697;22;20271;-79
2023/02/19 06:39:16;;;;;;;1.90;1.50;;;;;;;;;;6271238;22;20180;-78
2023/02/19 06:41:42;;;;;;;2.10;1.90;;;;;;;;;;6269203;22;20168;-79
2023/02/19 06:44:08;;;;;;;2.33;2.13;;;;;;;;;;6267756;22;20241;-79
2023/02/19 06:46:34;;;;;;;2.20;1.73;;;;;;;;;;6267434;22;20184;-81
2023/02/19 06:49:03;;;;;;;1.83;1.40;;;;;;;;;;6270058;22;20240;-82
2023/02/19 06:51:29;;;;;;;2.73;1.40;;;;;;;;;;6268883;22;20236;-77
2023/02/19 06:53:56;;;;;;;2.00;1.33;;;;;;;;;;6269151;22;20167;-80
2023/02/19 06:56:23;;;;;;;1.57;1.10;;;;;;;;;;6268786;22;20185;-80
2023/02/19 06:58:50;;;;;;;1.20;1.00;;;;;;;;;;6267048;22;20513;-78
2023/02/19 07:01:16;;;;;;;1.40;1.23;;;;;;;;;;6267472;22;20219;-79
2023/02/19 07:03:42;;;;;;;2.00;1.67;;;;;;;;;;6266328;22;20187;-78
2023/02/19 07:06:08;;;;;;;3.03;1.80;;;;;;;;;;6269477;22;20600;-80
2023/02/19 07:08:34;;;;;;;3.07;2.03;;;;;;;;;;6271378;22;20176;-80
2023/02/19 07:11:00;;;;;;;2.30;2.00;;;;;;;;;;6269305;22;20157;-77
2023/02/19 07:13:27;;;;;;;3.30;2.97;;;;;;;;;;6269708;22;20978;-80
2023/02/19 07:16:02;;;;;;;3.47;3.10;;;;;;;;;;6268607;22;20161;-79
2023/02/19 07:18:29;;;;;;;4.17;3.40;;;;;;;;;;6268517;22;20499;-79
2023/02/19 07:20:55;;;;;;;3.77;3.37;;;;;;;;;;6268727;22;20172;-78
2023/02/19 07:23:21;;;;;;;4.30;2.83;;;;;;;;;;6269557;22;20165;-79
2023/02/19 07:25:47;;;;;;;4.37;3.97;;;;;;;;;;6269396;22;20660;-82
2023/02/19 07:28:15;;;;;;;4.70;4.20;;;;;;;;;;6269236;22;20227;-80
2023/02/19 07:30:41;;;;;;;5.07;3.70;;;;;;;;;;6269898;22;20161;-79
2023/02/19 07:33:08;;;;;;;4.20;3.70;;;;;;;;;;6270572;22;20539;-81
2023/02/19 07:35:34;;;;;;;4.10;3.70;;;;;;;;;;6271612;22;20157;-79
2023/02/19 07:38:00;;;;;;;4.60;4.20;;;;;;;;;;6272063;22;20185;-77
2023/02/19 07:40:26;;;;;;;3.40;3.10;;;;;;;;;;6273718;22;20145;-81
2023/02/19 07:42:52;;;;;;;4.20;3.80;;;;;;;;;;6277888;22;20172;-79
2023/02/19 07:45:18;;;;;;;5.87;5.10;;;;;;;;;;6276176;22;20169;-81
2023/02/19 07:47:44;;;;;;;4.40;3.97;;;;;;;;;;6278873;22;20181;-77
2023/02/19 07:50:10;;;;;;;7.77;5.93;;;;;;;;;;6277024;22;20185;-79
2023/02/19 07:52:36;;;;;;;6.17;4.67;;;;;;;;;;6279088;22;20201;-79
2023/02/19 07:55:02;;;;;;;6.90;5.40;;;;;;;;;;6267272;22;20148;-79
2023/02/19 07:57:30;;;;;;;4.93;3.93;;;;;;;;;;6263723;22;20188;-76
2023/02/19 07:59:56;;;;;;;4.57;3.33;;;;;;;;;;6263846;22;20702;-77
2023/02/19 08:05:06;;;;;;;2.20;2.00;;;;;;;;;;6263227;22;20934;-78
2023/02/19 08:07:36;;;;;;;2.23;2.03;;;;;;;;;;6262542;22;20179;-79
2023/02/19 08:13:19;;;;;;;2.20;1.87;;;;;;;;;;6264710;22;20252;-77
2023/02/19 08:15:45;;;;;;;2.60;2.20;;;;;;;;;;6264071;22;20147;-78
2023/02/19 08:18:11;;;;;;;1.90;1.57;;;;;;;;;;6264836;22;20569;-76
2023/02/19 08:20:37;;;;;;;2.97;2.30;;;;;;;;;;6264801;22;20163;-78
2023/02/19 08:23:04;;;;;;;2.73;2.40;;;;;;;;;;6263170;22;20187;-79
2023/02/19 08:25:30;;;;;;;2.77;2.50;;;;;;;;;;6264073;22;20173;-79
2023/02/19 08:27:56;;;;;;;1.70;1.60;;;;;;;;;;6263468;22;20192;-79
2023/02/19 08:30:23;;;;;;;2.20;2.00;;;;;;;;;;6266990;22;20156;-80
2023/02/19 08:32:49;;;;;;;2.60;2.40;;;;;;;;;;6266682;22;20337;-79
2023/02/19 08:35:15;;;;;;;2.10;2.00;;;;;;;;;;6265281;22;20157;-78
2023/02/19 08:37:41;;;;;;;2.07;1.87;;;;;;;;;;6265503;22;20730;-78
2023/02/19 08:40:07;;;;;;;1.73;1.57;;;;;;;;;;6267439;22;20172;-78
2023/02/19 08:42:33;;;;;;;1.77;1.67;;;;;;;;;;6267782;22;20227;-78
2023/02/19 08:44:59;;;;;;;2.00;1.60;;;;;;;;;;6266103;22;20567;-77
2023/02/19 08:47:25;;;;;;;2.00;1.90;;;;;;;;;;6265894;22;20173;-79
2023/02/19 08:49:51;;;;;;;2.30;2.10;;;;;;;;;;6269895;22;20173;-79
2023/02/19 08:52:17;;;;;;;2.40;2.10;;;;;;;;;;6267738;22;20596;-80
2023/02/19 08:54:43;;;;;;;3.13;2.23;;;;;;;;;;6269602;22;20231;-80
2023/02/19 08:57:09;;;;;;;2.20;2.00;;;;;;;;;;6266188;22;20239;-79
2023/02/19 08:59:35;;;;;;;2.27;2.10;;;;;;;;;;6264909;22;20152;-78
2023/02/19 09:02:01;;;;;;;2.50;2.30;;;;;;;;;;6265461;22;20168;-79
2023/02/19 09:04:27;;;;;;;2.67;2.47;;;;;;;;;;6264394;22;20180;-78
2023/02/19 09:06:53;;;;;;;2.27;2.07;;;;;;;;;;6265265;22;20176;-79
2023/02/19 09:09:19;;;;;;;1.90;1.80;;;;;;;;;;6264914;22;20165;-80
2023/02/19 09:11:45;;;;;;;2.20;2.00;;;;;;;;;;6266744;22;20155;-78
2023/02/19 09:14:11;;;;;;;2.50;2.30;;;;;;;;;;6265036;22;20165;-80
2023/02/19 09:16:37;;;;;;;2.57;2.37;;;;;;;;;;6264207;22;20176;-79
2023/02/19 09:19:04;;;;;;;2.80;2.60;;;;;;;;;;6265645;22;20164;-80
2023/02/19 09:21:30;;;;;;;2.60;2.40;;;;;;;;;;6266912;22;20149;-79
2023/02/19 09:23:56;;;;;;;2.80;2.60;;;;;;;;;;6266992;22;20176;-80
2023/02/19 09:26:23;;;;;;;2.80;2.60;;;;;;;;;;6265445;22;20282;-78
2023/02/19 09:28:49;;;;;;;3.20;2.90;;;;;;;;;;6266589;22;20179;-79
2023/02/19 09:31:16;;;;;;;2.90;2.70;;;;;;;;;;6268963;22;20149;-79
2023/02/19 09:33:45;;;;;;;3.57;3.00;;;;;;;;;;6268514;22;20152;-81
2023/02/19 09:36:12;;;;;;;4.40;4.00;;;;;;;;;;6270180;22;20145;-78
2023/02/19 09:38:39;;;;;;;4.03;3.50;;;;;;;;;;6268388;22;20159;-82
2023/02/19 09:41:07;;;;;;;4.10;3.70;;;;;;;;;;6265769;22;20150;-81
2023/02/19 09:43:33;;;;;;;4.83;3.43;;;;;;;;;;6267525;22;20138;-81
2023/02/19 09:46:06;;;;;;;4.83;4.13;;;;;;;;;;6268033;22;20180;-81
2023/02/19 09:48:32;;;;;;;3.57;3.27;;;;;;;;;;6269895;22;20153;-81
2023/02/19 09:51:00;;;;;;;4.47;3.77;;;;;;;;;;6270886;22;20145;-81
2023/02/19 09:53:29;;;;;;;3.17;2.70;;;;;;;;;;6269311;22;20164;-81
2023/02/19 09:55:55;;;;;;;3.80;2.80;;;;;;;;;;6270477;22;20153;-78
2023/02/19 09:58:28;;;;;;;7.07;5.03;;;;;;;;;;6269561;22;20173;-79
2023/02/19 10:00:55;;;;;;;6.07;4.73;;;;;;;;;;6268980;22;20256;-81
2023/02/19 10:03:24;;;;;;;6.67;5.83;;;;;;;;;;6270289;22;20153;-80
2023/02/19 10:05:51;;;;;;;5.70;4.40;;;;;;;;;;6271064;22;20521;-80
2023/02/19 10:08:19;;;;;;;5.10;4.40;;;;;;;;;;6272817;22;20620;-79
2023/02/19 10:10:45;;;;;;;4.90;3.80;;;;;;;;;;6271083;22;20150;-79
2023/02/19 10:13:21;;;;;;;5.60;3.90;;;;;;;;;;6268541;22;20157;-79
2023/02/19 10:15:52;;;;;;;4.23;3.40;;;;;;;;;;6269630;22;20157;-79
2023/02/19 10:18:19;;;;;;;11.47;7.70;;;;;;;;;;6273290;22;20604;-80
2023/02/19 10:20:47;;;;;;;5.67;4.63;;;;;;;;;;6274738;22;20282;-80
2023/02/19 10:23:14;;;;;;;6.13;3.73;;;;;;;;;;6273646;22;20156;-79
2023/02/19 10:25:43;;;;;;;4.40;3.03;;;;;;;;;;6272841;22;20187;-79
2023/02/19 10:28:13;;;;;;;3.87;3.03;;;;;;;;;;6270286;22;20543;-78
2023/02/19 10:30:40;;;;;;;2.83;2.10;;;;;;;;;;6269351;22;20164;-79
2023/02/19 10:33:11;;;;;;;4.40;1.47;;;;;;;;;;6267278;22;20670;-77
2023/02/19 10:35:38;;;;;;;2.97;2.20;;;;;;;;;;6269886;22;20160;-79
2023/02/19 10:38:07;;;;;;;3.80;3.40;;;;;;;;;;6267883;22;20818;-80
2023/02/19 10:40:33;;;;;;;4.40;2.10;;;;;;;;;;6269430;22;20157;-80
2023/02/19 10:43:01;;;;;;;4.00;1.40;;;;;;;;;;6266684;22;20157;-78
2023/02/19 10:45:46;;;;;;;3.90;1.93;;;;;;;;;;6266988;22;20529;-78
2023/02/19 10:48:23;;;;;;;3.77;2.03;;;;;;;;;;6267689;22;20164;-79
2023/02/19 10:50:55;;;;;;;2.97;2.60;;;;;;;;;;6266611;22;20183;-78
2023/02/19 10:53:22;;;;;;;5.63;2.20;;;;;;;;;;6267322;22;20747;-81
2023/02/19 10:56:05;;;;;;;5.93;2.00;;;;;;;;;;6267764;22;20729;-78
2023/02/19 10:58:33;;;;;;;2.73;1.77;;;;;;;;;;6266626;22;20157;-78
2023/02/19 11:01:14;;;;;;;4.37;1.93;;;;;;;;;;6269175;22;20157;-78
2023/02/19 11:03:40;;;;;;;3.17;1.40;;;;;;;;;;6267251;22;20153;-80
2023/02/19 11:06:07;;;;;;;5.53;2.20;;;;;;;;;;6265988;22;20196;-77
2023/02/19 11:08:54;;;;;;;6.07;2.70;;;;;;;;;;6266744;22;20153;-78
2023/02/19 11:11:23;;;;;;;6.53;3.23;;;;;;;;;;6241760;22;20623;-78
2023/02/19 11:13:49;;;;;;;6.63;2.83;;;;;;;;;;6266742;22;20160;-79
2023/02/19 11:16:15;;;;;;;6.27;2.93;;;;;;;;;;6266685;22;20157;-80
2023/02/19 11:18:41;;;;;;;7.07;2.43;;;;;;;;;;6268184;22;20149;-79
2023/02/19 11:21:22;;;;;;;4.73;2.37;;;;;;;;;;6268582;22;20232;-79
2023/02/19 11:23:48;;;;;;;3.40;1.80;;;;;;;;;;6265752;22;20183;-79
2023/02/19 11:26:22;;;;;;;4.67;2.20;;;;;;;;;;6266728;22;20165;-78
2023/02/19 11:28:55;;;;;;;4.83;1.97;;;;;;;;;;6267187;22;20180;-77
2023/02/19 11:31:23;;;;;;;4.60;2.37;;;;;;;;;;6270561;22;20153;-78
2023/02/19 11:34:01;;;;;;;5.33;2.60;;;;;;;;;;6268910;22;20248;-79
2023/02/19 11:36:32;;;;;;;4.37;1.53;;;;;;;;;;6269881;22;20251;-78
2023/02/19 11:38:59;;;;;;;4.47;2.50;;;;;;;;;;6268922;22;20141;-79
2023/02/19 11:41:43;;;;;;;4.87;2.70;;;;;;;;;;6268572;22;20172;-77
2023/02/19 11:44:09;;;;;;;4.63;1.87;;;;;;;;;;6267605;22;20208;-78
2023/02/19 11:46:47;;;;;;;7.80;2.60;;;;;;;;;;6269025;22;20169;-79
2023/02/19 11:49:19;;;;;;;3.57;2.00;;;;;;;;;;6269008;22;20149;-79
2023/02/19 11:51:51;;;;;;;7.40;1.70;;;;;;;;;;6267518;22;20187;-78
2023/02/19 11:54:20;;;;;;;3.43;2.13;;;;;;;;;;6272036;22;20188;-79
2023/02/19 11:56:49;;;;;;;4.43;2.23;;;;;;;;;;6269218;22;20171;-80
2023/02/19 11:59:26;;;;;;;3.07;1.50;;;;;;;;;;6242530;22;20647;-77
2023/02/19 12:01:55;;;;;;;4.97;2.70;;;;;;;;;;6268537;22;20249;-80
2023/02/19 12:04:25;;;;;;;4.60;1.93;;;;;;;;;;6267343;22;20177;-77
2023/02/19 12:07:06;;;;;;;3.27;1.67;;;;;;;;;;6266984;22;20172;-79
2023/02/19 12:09:42;;;;;;;3.33;1.40;;;;;;;;;;6265797;22;20149;-77
2023/02/19 12:12:25;;;;;;;3.97;1.67;;;;;;;;;;6267601;22;20156;-78
2023/02/19 12:14:51;;;;;;;4.03;1.30;;;;;;;;;;6267250;22;20145;-79
2023/02/19 12:17:32;;;;;;;5.40;1.73;;;;;;;;;;6267398;22;20686;-80
2023/02/19 12:20:16;;;;;;;2.50;1.70;;;;;;;;;;6267651;22;20160;-80
2023/02/19 12:22:49;;;;;;;3.50;1.87;;;;;;;;;;6267461;22;20152;-78
2023/02/19 12:25:18;;;;;;;4.80;1.50;;;;;;;;;;6264845;22;20223;-79
2023/02/19 12:27:52;;;;;;;3.30;1.37;;;;;;;;;;6266601;22;21068;-78
2023/02/19 12:30:27;;;;;;;4.07;1.87;;;;;;;;;;6265915;22;20157;-79
2023/02/19 12:32:53;;;;;;;4.30;2.03;;;;;;;;;;6266710;22;20267;-78
2023/02/19 12:35:19;;;;;;;4.77;1.60;;;;;;;;;;6264650;22;20611;-79
2023/02/19 12:38:03;;;;;;;4.03;1.67;;;;;;;;;;6265266;22;20173;-79
2023/02/19 12:40:38;;;;;;;3.97;2.97;;;;;;;;;;6267825;22;20196;-78
2023/02/19 12:43:07;;;;;;;5.30;2.43;;;;;;;;;;6267550;22;20215;-79
2023/02/19 12:45:37;;;;;;;5.33;3.10;;;;;;;;;;6266983;22;20176;-78
2023/02/19 12:48:12;;;;;;;3.77;2.40;;;;;;;;;;6267229;22;20169;-79
2023/02/19 12:50:39;;;;;;;7.87;3.67;;;;;;;;;;6265617;22;20209;-78
2023/02/19 12:53:26;;;;;;;6.13;3.13;;;;;;;;;;6265144;22;20234;-79
2023/02/19 12:55:52;;;;;;;7.33;3.00;;;;;;;;;;6245241;22;20774;-78
2023/02/19 12:58:27;;;;;;;8.87;3.30;;;;;;;;;;6273108;22;20580;-77
2023/02/19 13:00:57;;;;;;;5.00;2.77;;;;;;;;;;6274385;22;20145;-80
2023/02/19 13:03:32;;;;;;;5.73;2.13;;;;;;;;;;6269566;22;20153;-78
2023/02/19 13:06:09;;;;;;;5.90;2.13;;;;;;;;;;6266782;22;20175;-80
2023/02/19 13:08:35;;;;;;;5.13;2.23;;;;;;;;;;6267149;22;20139;-80
2023/02/19 13:11:20;;;;;;;5.20;2.43;;;;;;;;;;6266483;22;20223;-80
2023/02/19 13:13:52;;;;;;;5.90;2.60;;;;;;;;;;6264787;22;20208;-80
2023/02/19 13:16:20;;;;;;;6.27;2.70;;;;;;;;;;6264995;22;20884;-80
2023/02/19 13:18:48;;;;;;;6.27;2.70;;;;;;;;;;6264881;22;20215;-80
2023/02/19 13:23:57;;;;;;;3.90;2.37;;;;;;;;;;6265274;22;20156;-80
2023/02/19 13:24:06;;;;;;;3.40;1.53;;;;;;;;;;6263876;22;20560;-79
2023/02/19 13:27:04;;;;;;;3.40;1.60;;;;;;;;;;6264898;22;20177;-80
2023/02/19 13:29:36;;;;;;;5.00;2.30;;;;;;;;;;6182333;22;20177;-79
2023/02/19 13:32:02;;;;;;;5.93;2.10;;;;;;;;;;6262968;22;20156;-80
2023/02/19 13:34:28;;;;;;;4.60;1.73;;;;;;;;;;6269300;22;20141;-81
2023/02/19 13:36:55;;;;;;;4.53;2.07;;;;;;;;;;6267004;22;20873;-81
2023/02/19 13:39:22;;;;;;;5.23;2.90;;;;;;;;;;6267876;22;20169;-79
2023/02/19 13:41:51;;;;;;;6.60;2.57;;;;;;;;;;6269165;22;20181;-78
2023/02/19 13:44:38;;;;;;;4.73;2.23;;;;;;;;;;6269165;22;20188;-78
2023/02/19 13:47:05;;;;;;;4.50;2.40;;;;;;;;;;6260892;22;20181;-80
2023/02/19 13:49:32;;;;;;;5.77;3.03;;;;;;;;;;6263019;22;20207;-80
2023/02/19 13:52:22;;;;;;;5.60;3.03;;;;;;;;;;6263311;22;20236;-79
2023/02/19 13:54:48;;;;;;;6.10;3.40;;;;;;;;;;6243447;22;20161;-78
2023/02/19 13:57:21;;;;;;;5.23;1.70;;;;;;;;;;6263645;22;20229;-78
2023/02/19 13:59:47;;;;;;;4.63;2.50;;;;;;;;;;6265010;22;20154;-79
2023/02/19 14:02:14;;;;;;;5.37;2.30;;;;;;;;;;6264394;22;20601;-81
2023/02/19 14:04:42;;;;;;;7.73;4.30;;;;;;;;;;6262294;22;20784;-80
2023/02/19 14:07:08;;;;;;;3.63;2.27;;;;;;;;;;6262084;22;20527;-78
2023/02/19 14:09:42;;;;;;;5.57;2.70;;;;;;;;;;6263620;22;20152;-80
2023/02/19 14:12:11;;;;;;;6.07;3.10;;;;;;;;;;6262433;22;20156;-79
2023/02/19 14:14:38;;;;;;;7.73;3.50;;;;;;;;;;6262143;22;20165;-80
2023/02/19 14:17:24;;;;;;;4.33;2.73;;;;;;;;;;6264027;22;20251;-81
2023/02/19 14:19:51;;;;;;;7.53;5.23;;;;;;;;;;6264547;22;20172;-80
2023/02/19 14:22:36;;;;;;;6.63;4.67;;;;;;;;;;6261960;22;20188;-79
2023/02/19 14:25:02;;;;;;;4.27;2.47;;;;;;;;;;6260063;22;20180;-81
2023/02/19 14:27:28;;;;;;;4.73;3.03;;;;;;;;;;6265180;22;20617;-81
2023/02/19 14:29:55;;;;;;;4.23;2.60;;;;;;;;;;6276061;22;20168;-78
2023/02/19 14:32:21;;;;;;;4.60;2.10;;;;;;;;;;6271589;22;20178;-79
2023/02/19 14:34:47;;;;;;;3.43;2.10;;;;;;;;;;6268177;22;20157;-80
2023/02/19 14:37:19;;;;;;;5.47;2.30;;;;;;;;;;6267067;22;20270;-78
2023/02/19 14:39:45;;;;;;;3.40;1.70;;;;;;;;;;6268917;22;20177;-78
2023/02/19 14:42:25;;;;;;;3.53;1.60;;;;;;;;;;6269549;22;20149;-79
2023/02/19 14:44:51;;;;;;;2.87;2.03;;;;;;;;;;6267804;22;20181;-80
2023/02/19 14:47:19;;;;;;;3.67;1.90;;;;;;;;;;6267385;22;20177;-79
2023/02/19 14:49:47;;;;;;;3.60;1.80;;;;;;;;;;6269809;22;20157;-78
2023/02/19 14:52:23;;;;;;;3.47;1.90;;;;;;;;;;6270961;22;20175;-80
2023/02/19 14:54:49;;;;;;;3.70;1.70;;;;;;;;;;6269696;22;20593;-80
2023/02/19 14:57:24;;;;;;;4.53;1.80;;;;;;;;;;6272451;22;20223;-79